Time;durP1;ratioP1;P1;durP2;ratioP2;P2;SDS_P1;SDS_P2;PMS_P1;PMS_P2;Temp;Humidity;BMP_temperature;BMP_pressure;BME280_temperature;BME280_humidity;BME280_pressure;Samples;Min_cycle;Max_cycle;Signal;HPM_P1;HPM_P2
2022/06/23 00:01:49;;;;;;;7.47;3.28;;;17.00;99.90;;;;;;5108729;28;20154;-52
2022/06/23 00:04:18;;;;;;;6.20;3.35;;;17.00;99.90;;;;;;5109297;28;20070;-50
2022/06/23 00:07:00;;;;;;;6.80;3.47;;;17.00;99.90;;;;;;5109191;28;20039;-47
2022/06/23 00:09:51;;;;;;;7.00;3.75;;;16.90;99.90;;;;;;5110293;27;20039;-51
2022/06/23 00:12:27;;;;;;;7.10;3.78;;;16.90;99.90;;;;;;5111014;28;20081;-47
2022/06/23 00:14:59;;;;;;;5.72;3.30;;;16.80;99.90;;;;;;5110317;28;20058;-49
2022/06/23 00:17:27;;;;;;;6.80;3.45;;;16.50;99.90;;;;;;5110581;28;20032;-47
2022/06/23 00:19:54;;;;;;;6.22;3.28;;;16.60;99.90;;;;;;5110835;28;20031;-49
2022/06/23 00:22:24;;;;;;;6.88;3.60;;;16.60;99.90;;;;;;5110513;28;20042;-48
2022/06/23 00:24:53;;;;;;;6.88;3.40;;;16.60;99.90;;;;;;5110881;28;20501;-48
2022/06/23 00:27:21;;;;;;;7.10;3.58;;;16.60;99.90;;;;;;5109759;28;20067;-48
2022/06/23 00:29:47;;;;;;;5.53;3.38;;;16.60;99.90;;;;;;5110617;28;20042;-49
2022/06/23 00:32:14;;;;;;;8.48;3.40;;;16.50;99.90;;;;;;5110409;28;20086;-50
2022/06/23 00:34:54;;;;;;;5.07;3.10;;;16.50;99.90;;;;;;5092544;28;20082;-48
2022/06/23 00:37:20;;;;;;;5.80;3.53;;;16.40;99.90;;;;;;5109450;28;20051;-48
2022/06/23 00:39:57;;;;;;;7.65;3.70;;;16.50;99.90;;;;;;5109246;28;20039;-49
2022/06/23 00:42:30;;;;;;;6.80;3.40;;;16.40;99.90;;;;;;5110547;28;20039;-49
2022/06/23 00:45:13;;;;;;;6.97;3.58;;;16.40;99.90;;;;;;5110667;28;20051;-47
2022/06/23 00:47:49;;;;;;;6.07;3.83;;;16.40;99.90;;;;;;5092015;28;20040;-47
2022/06/23 00:50:35;;;;;;;7.38;4.03;;;16.30;99.90;;;;;;5110642;28;20517;-50
2022/06/23 00:53:13;;;;;;;7.65;3.72;;;16.30;99.90;;;;;;5091811;28;20035;-47
2022/06/23 00:56:09;;;;;;;7.65;3.70;;;16.20;99.90;;;;;;5110420;28;20035;-48
2022/06/23 00:58:50;;;;;;;9.38;4.32;;;16.20;99.90;;;;;;5110123;28;20039;-48
2022/06/23 01:01:35;;;;;;;6.60;3.83;;;16.20;99.90;;;;;;5110411;28;20501;-48
2022/06/23 01:04:28;;;;;;;8.38;4.05;;;16.20;99.90;;;;;;5109913;28;20309;-49
2022/06/23 01:07:06;;;;;;;7.43;3.92;;;16.20;99.90;;;;;;5109956;28;20114;-48
2022/06/23 01:09:53;;;;;;;6.82;3.80;;;16.20;99.90;;;;;;5091966;28;20079;-51
2022/06/23 01:12:21;;;;;;;6.57;4.00;;;16.20;99.90;;;;;;5110251;28;20080;-48
2022/06/23 01:14:58;;;;;;;7.03;4.07;;;16.10;99.90;;;;;;5110393;28;20036;-51
2022/06/23 01:17:46;;;;;;;8.80;4.20;;;16.10;99.90;;;;;;5109629;28;20032;-48
2022/06/23 01:20:25;;;;;;;5.57;3.72;;;16.10;99.90;;;;;;5110069;28;20039;-49
2022/06/23 01:22:59;;;;;;;7.38;3.95;;;16.00;99.90;;;;;;5108251;28;20419;-48
2022/06/23 01:25:40;;;;;;;8.32;4.25;;;16.00;99.90;;;;;;5110854;28;20097;-51
2022/06/23 01:28:21;;;;;;;6.18;3.75;;;16.00;99.90;;;;;;5113644;28;20047;-48
2022/06/23 01:31:02;;;;;;;7.03;4.22;;;15.90;99.90;;;;;;5114336;28;20036;-48
2022/06/23 01:33:34;;;;;;;7.63;4.28;;;15.90;99.90;;;;;;5114028;28;20062;-51
2022/06/23 01:36:20;;;;;;;9.18;4.72;;;15.90;99.90;;;;;;5113813;28;20050;-50
2022/06/23 01:38:54;;;;;;;6.68;4.07;;;15.70;99.90;;;;;;5113737;28;20087;-46
2022/06/23 01:41:23;;;;;;;8.32;4.47;;;15.70;99.90;;;;;;5113613;28;20040;-49
2022/06/23 01:43:59;;;;;;;6.68;4.25;;;15.70;99.90;;;;;;5113858;28;20114;-50
2022/06/23 01:46:36;;;;;;;7.40;4.57;;;15.70;99.90;;;;;;5113436;28;20043;-51
2022/06/23 01:49:01;;;;;;;6.70;4.55;;;15.70;99.90;;;;;;5113753;28;20032;-51
2022/06/23 01:51:40;;;;;;;8.40;4.80;;;15.60;99.90;;;;;;5113194;27;20044;-48
2022/06/23 01:54:19;;;;;;;7.60;4.55;;;15.60;99.90;;;;;;5113592;28;20050;-51
2022/06/23 01:57:07;;;;;;;6.47;4.68;;;15.60;99.90;;;;;;5112559;27;20050;-48
2022/06/23 01:59:35;;;;;;;7.82;4.63;;;15.60;99.90;;;;;;5077779;28;20060;-50
2022/06/23 02:02:11;;;;;;;6.30;4.30;;;15.60;99.90;;;;;;5113154;28;20047;-50
2022/06/23 02:05:02;;;;;;;9.25;4.75;;;15.50;99.90;;;;;;5113301;28;20028;-48
2022/06/23 02:07:31;;;;;;;9.00;5.22;;;15.40;99.90;;;;;;5092439;28;20036;-49
2022/06/23 02:10:18;;;;;;;7.35;5.38;;;15.40;99.90;;;;;;5112635;28;20040;-47
2022/06/23 02:12:55;;;;;;;8.27;5.40;;;15.40;99.90;;;;;;5112604;28;20039;-50
2022/06/23 02:15:52;;;;;;;7.85;5.30;;;15.40;99.90;;;;;;5113323;28;20046;-49
2022/06/23 02:18:31;;;;;;;8.63;5.40;;;15.30;99.90;;;;;;5113033;27;20088;-49
2022/06/23 02:20:56;;;;;;;8.32;5.57;;;15.30;99.90;;;;;;5112932;28;20043;-49
2022/06/23 02:23:31;;;;;;;7.63;6.15;;;15.30;99.90;;;;;;5113007;27;20048;-48
2022/06/23 02:26:11;;;;;;;8.75;5.18;;;15.20;99.90;;;;;;5112384;28;20038;-48
2022/06/23 02:28:53;;;;;;;7.88;5.50;;;15.10;99.90;;;;;;5112964;28;20045;-48
2022/06/23 02:31:26;;;;;;;8.88;5.68;;;15.20;99.90;;;;;;5112460;28;20089;-48
2022/06/23 02:33:55;;;;;;;9.77;6.22;;;15.20;99.90;;;;;;5112862;28;20865;-50
2022/06/23 02:36:38;;;;;;;10.18;5.55;;;15.10;99.90;;;;;;5093772;28;20039;-49
2022/06/23 02:39:19;;;;;;;8.43;6.10;;;15.10;99.90;;;;;;5112572;28;20034;-49
2022/06/23 02:41:59;;;;;;;9.75;6.47;;;15.10;99.90;;;;;;5112437;28;20089;-47
2022/06/23 02:44:45;;;;;;;9.90;6.32;;;15.00;99.90;;;;;;5112222;28;20044;-47
2022/06/23 02:47:32;;;;;;;9.75;6.07;;;15.10;99.90;;;;;;5111200;28;20440;-50
2022/06/23 02:50:09;;;;;;;10.30;6.65;;;15.00;99.90;;;;;;5112420;28;20440;-47
2022/06/23 02:52:48;;;;;;;11.75;5.90;;;15.00;99.90;;;;;;5110359;28;20043;-50
2022/06/23 02:55:40;;;;;;;10.80;6.00;;;14.90;99.90;;;;;;5111499;28;20039;-48
2022/06/23 02:58:29;;;;;;;12.05;6.40;;;14.90;99.90;;;;;;5111934;28;20495;-49
2022/06/23 03:01:05;;;;;;;8.90;6.55;;;14.90;99.90;;;;;;5073452;28;20463;-50
2022/06/23 03:03:46;;;;;;;10.50;6.43;;;14.80;99.90;;;;;;5111814;28;20075;-49
2022/06/23 03:06:27;;;;;;;8.02;5.95;;;14.80;99.90;;;;;;5112388;28;20046;-49
2022/06/23 03:09:17;;;;;;;10.48;6.57;;;14.90;99.90;;;;;;5112170;27;20057;-47
2022/06/23 03:11:55;;;;;;;8.73;5.85;;;14.80;99.90;;;;;;5112189;28;20042;-49
2022/06/23 03:14:42;;;;;;;9.65;6.50;;;14.80;99.90;;;;;;5111385;28;20122;-51
2022/06/23 03:17:34;;;;;;;8.55;6.30;;;14.70;99.90;;;;;;5093260;28;20035;-48
2022/06/23 03:20:04;;;;;;;9.10;6.28;;;14.70;99.90;;;;;;5111561;28;20067;-46
2022/06/23 03:22:44;;;;;;;9.82;6.50;;;14.70;99.90;;;;;;5093245;28;20320;-50
2022/06/23 03:25:32;;;;;;;12.02;6.57;;;14.70;99.90;;;;;;5093115;28;20111;-50
2022/06/23 03:28:03;;;;;;;9.00;6.22;;;14.70;99.90;;;;;;5110700;28;20043;-50
2022/06/23 03:30:39;;;;;;;10.23;6.40;;;14.70;99.90;;;;;;5111516;28;20231;-50
2022/06/23 03:33:17;;;;;;;10.85;6.75;;;14.60;99.90;;;;;;5111570;28;20047;-47
2022/06/23 03:36:16;;;;;;;9.88;6.75;;;14.50;99.90;;;;;;5111765;27;20046;-49
2022/06/23 03:42:17;;;;;;;9.43;5.90;;;14.50;99.90;;;;;;5110591;28;20048;-47
2022/06/23 03:45:07;;;;;;;10.18;6.32;;;14.50;99.90;;;;;;5110580;28;20032;-49
2022/06/23 03:47:59;;;;;;;10.02;6.55;;;14.50;99.90;;;;;;5111142;28;20035;-49
2022/06/23 03:50:34;;;;;;;11.20;6.30;;;14.50;99.90;;;;;;5111252;28;20116;-48
2022/06/23 03:53:07;;;;;;;10.05;6.63;;;14.50;99.90;;;;;;5110939;28;20040;-48
2022/06/23 03:55:44;;;;;;;11.65;6.50;;;14.50;99.90;;;;;;5110522;28;20078;-49
2022/06/23 03:58:15;;;;;;;11.95;6.70;;;14.50;99.90;;;;;;5110447;28;20479;-47
2022/06/23 04:00:51;;;;;;;11.30;6.97;;;14.50;99.90;;;;;;5110587;28;20172;-48
2022/06/23 04:03:41;;;;;;;8.77;6.50;;;14.50;99.90;;;;;;5110755;27;20130;-46
2022/06/23 04:06:14;;;;;;;13.05;6.90;;;14.50;99.90;;;;;;5110849;28;20044;-51
2022/06/23 04:09:09;;;;;;;10.95;6.93;;;14.60;99.90;;;;;;5108669;28;20118;-51
2022/06/23 04:11:45;;;;;;;8.93;6.20;;;14.60;99.90;;;;;;5110315;28;20054;-50
2022/06/23 04:14:28;;;;;;;12.98;6.95;;;14.60;99.90;;;;;;5110367;28;20080;-49
2022/06/23 04:17:04;;;;;;;12.88;7.45;;;14.50;99.90;;;;;;5110826;28;20118;-49
2022/06/23 04:19:31;;;;;;;11.57;7.47;;;14.50;99.90;;;;;;5110704;28;20043;-49
2022/06/23 04:22:12;;;;;;;11.73;7.07;;;14.50;99.90;;;;;;5110653;28;20035;-50
2022/06/23 04:24:44;;;;;;;11.55;7.13;;;14.50;99.90;;;;;;5109163;28;20035;-48
2022/06/23 04:27:27;;;;;;;9.82;7.40;;;14.50;99.90;;;;;;5110416;28;20044;-49
2022/06/23 04:29:57;;;;;;;12.32;7.32;;;14.50;99.90;;;;;;5091377;28;20067;-48
2022/06/23 04:32:27;;;;;;;10.98;7.30;;;14.60;99.90;;;;;;5110075;28;20036;-48
2022/06/23 04:35:04;;;;;;;9.88;7.10;;;14.60;99.90;;;;;;5110321;28;20134;-48
2022/06/23 04:37:38;;;;;;;11.20;7.88;;;14.60;99.90;;;;;;5110301;28;20041;-49
2022/06/23 04:40:28;;;;;;;10.93;7.63;;;14.60;99.90;;;;;;5110384;28;20512;-48
2022/06/23 04:42:58;;;;;;;9.93;6.88;;;14.70;99.90;;;;;;5110592;28;20036;-50
2022/06/23 04:45:57;;;;;;;10.90;7.72;;;14.70;99.90;;;;;;5110492;28;20046;-50
2022/06/23 04:48:29;;;;;;;11.90;7.30;;;14.80;99.90;;;;;;5110573;28;20096;-46
2022/06/23 04:51:35;;;;;;;10.63;7.03;;;14.80;99.90;;;;;;5109952;28;20069;-50
2022/06/23 04:54:09;;;;;;;14.45;7.65;;;14.80;99.90;;;;;;5109438;28;20054;-47
2022/06/23 04:56:57;;;;;;;12.13;7.40;;;14.90;99.90;;;;;;5109423;28;20119;-49
2022/06/23 04:59:22;;;;;;;10.82;7.20;;;15.00;99.90;;;;;;5110116;28;20048;-51
2022/06/23 05:01:50;;;;;;;12.07;7.95;;;15.00;99.90;;;;;;5113717;28;20066;-49
2022/06/23 05:04:36;;;;;;;17.63;8.40;;;15.10;99.90;;;;;;5096492;28;20471;-51
2022/06/23 05:07:03;;;;;;;15.38;8.05;;;15.10;99.90;;;;;;5114366;28;20470;-50
2022/06/23 05:09:36;;;;;;;12.10;7.93;;;15.20;99.90;;;;;;5113248;28;20398;-48
2022/06/23 05:12:31;;;;;;;13.13;7.38;;;15.30;99.90;;;;;;5114164;27;20044;-49
2022/06/23 05:15:26;;;;;;;;;;;15.40;99.90;;;;;;5105192;28;20711;-50
2022/06/23 05:17:59;;;;;;;13.07;7.78;;;15.50;99.90;;;;;;5096214;28;20366;-50
2022/06/23 05:21:02;;;;;;;12.70;7.40;;;15.60;99.90;;;;;;5114156;27;20043;-50
2022/06/23 05:23:43;;;;;;;13.65;7.63;;;15.60;99.90;;;;;;5074223;28;20055;-50
2022/06/23 05:26:21;;;;;;;11.77;7.72;;;15.70;99.90;;;;;;5117797;27;20087;-49
2022/06/23 05:28:51;;;;;;;12.25;7.95;;;15.70;99.90;;;;;;5134327;27;20095;-48
2022/06/23 05:31:22;;;;;;;12.00;8.15;;;15.80;99.90;;;;;;5134543;27;20420;-49
2022/06/23 05:33:54;;;;;;;14.43;8.13;;;15.90;99.90;;;;;;5134470;27;20038;-48
2022/06/23 05:36:21;;;;;;;13.30;7.78;;;16.00;99.90;;;;;;5124674;27;20035;-48
2022/06/23 05:38:53;;;;;;;14.48;7.90;;;16.00;99.90;;;;;;5113849;28;20501;-48
2022/06/23 05:41:49;;;;;;;9.82;7.20;;;16.20;99.90;;;;;;5113778;28;20028;-48
2022/06/23 05:44:47;;;;;;;10.40;7.35;;;16.20;99.90;;;;;;5077749;28;20046;-50
2022/06/23 05:47:14;;;;;;;12.57;7.30;;;16.20;99.90;;;;;;5113896;28;20550;-49
2022/06/23 05:49:46;;;;;;;12.70;7.53;;;16.30;99.90;;;;;;5113455;28;20074;-51
2022/06/23 05:52:19;;;;;;;12.40;7.07;;;16.40;99.90;;;;;;5111778;27;20046;-48
2022/06/23 05:54:53;;;;;;;10.80;7.97;;;16.50;99.90;;;;;;5112621;27;20032;-49
2022/06/23 05:57:21;;;;;;;9.97;7.20;;;16.60;99.90;;;;;;5112132;28;20032;-48
2022/06/23 06:00:21;;;;;;;12.70;7.05;;;16.70;99.90;;;;;;5113008;28;20048;-49
2022/06/23 06:02:56;;;;;;;10.80;7.95;;;16.80;99.90;;;;;;5094777;28;20048;-48
2022/06/23 06:05:31;;;;;;;12.50;7.68;;;16.90;99.90;;;;;;5113371;27;20035;-47
2022/06/23 06:08:00;;;;;;;12.88;7.70;;;17.00;99.90;;;;;;5113174;27;20111;-46
2022/06/23 06:10:28;;;;;;;11.15;7.30;;;17.10;99.90;;;;;;5113179;28;20475;-50
2022/06/23 06:12:55;;;;;;;9.07;7.03;;;17.20;99.90;;;;;;5111313;28;20040;-46
2022/06/23 06:15:27;;;;;;;13.25;7.22;;;17.30;99.90;;;;;;5107958;28;20050;-48
2022/06/23 06:18:17;;;;;;;10.57;6.97;;;17.30;99.90;;;;;;5105292;28;20182;-49
2022/06/23 06:20:42;;;;;;;13.02;7.47;;;17.40;99.90;;;;;;5109168;28;20039;-47
2022/06/23 06:23:33;;;;;;;10.25;6.53;;;17.50;99.90;;;;;;5111794;28;20486;-48
2022/06/23 06:25:59;;;;;;;13.10;7.25;;;17.60;99.90;;;;;;5097168;28;20063;-48
2022/06/23 06:28:30;;;;;;;13.35;6.57;;;17.70;99.90;;;;;;5111473;27;20035;-51
2022/06/23 06:31:02;;;;;;;10.20;6.20;;;17.80;99.90;;;;;;5089452;28;20031;-47
2022/06/23 06:33:37;;;;;;;10.98;6.50;;;18.00;99.90;;;;;;5104450;27;20039;-50
2022/06/23 06:36:24;;;;;;;8.80;6.20;;;18.00;99.90;;;;;;5102808;27;20044;-51
2022/06/23 06:38:50;;;;;;;10.30;6.30;;;18.20;99.90;;;;;;5102853;28;20039;-45
2022/06/23 06:41:15;;;;;;;11.25;6.50;;;18.30;99.90;;;;;;5103826;28;20039;-48
2022/06/23 06:43:41;;;;;;;10.48;6.55;;;18.30;99.90;;;;;;5104274;28;20380;-48
2022/06/23 06:46:07;;;;;;;11.75;6.13;;;18.40;99.90;;;;;;5085022;28;20036;-52
2022/06/23 06:48:38;;;;;;;12.38;6.70;;;18.50;99.90;;;;;;5089723;28;20042;-47
2022/06/23 06:51:12;;;;;;;13.57;6.35;;;18.60;99.90;;;;;;5103366;28;20036;-48
2022/06/23 06:53:43;;;;;;;9.85;6.22;;;18.70;99.90;;;;;;5098163;28;20042;-51
2022/06/23 06:56:22;;;;;;;8.43;5.78;;;18.70;99.90;;;;;;5103224;28;20027;-47
2022/06/23 06:59:05;;;;;;;10.52;6.40;;;18.90;99.90;;;;;;5086934;28;20043;-49
2022/06/23 07:01:35;;;;;;;10.85;5.53;;;19.00;99.90;;;;;;5103606;28;20055;-49
2022/06/23 07:04:00;;;;;;;9.65;6.47;;;19.10;99.90;;;;;;5103472;27;20055;-49
2022/06/23 07:06:41;;;;;;;12.20;5.75;;;19.20;99.90;;;;;;5103783;28;20063;-48
2022/06/23 07:09:25;;;;;;;11.30;5.90;;;19.30;99.90;;;;;;5104007;28;20101;-49
2022/06/23 07:12:03;;;;;;;9.45;5.25;;;19.40;99.90;;;;;;5103429;28;20038;-50
2022/06/23 07:14:40;;;;;;;8.95;5.28;;;19.40;99.90;;;;;;5098815;28;20075;-48
2022/06/23 07:17:19;;;;;;;8.48;5.18;;;19.50;99.90;;;;;;5091702;27;20100;-49
2022/06/23 07:20:11;;;;;;;9.65;4.93;;;19.60;99.90;;;;;;5095353;28;20032;-50
2022/06/23 07:22:50;;;;;;;10.52;5.88;;;19.80;99.90;;;;;;5090855;28;20035;-51
2022/06/23 07:25:22;;;;;;;10.73;5.53;;;19.90;99.90;;;;;;5091719;28;20067;-49
2022/06/23 07:27:54;;;;;;;9.75;5.90;;;20.00;99.90;;;;;;5106119;27;20138;-48
2022/06/23 07:30:52;;;;;;;9.48;5.10;;;20.10;99.90;;;;;;5109310;28;20071;-50
2022/06/23 07:33:24;;;;;;;11.40;5.18;;;20.20;99.90;;;;;;5111257;28;20043;-50
2022/06/23 07:36:13;;;;;;;9.80;5.13;;;20.30;99.90;;;;;;5111645;28;20073;-49
2022/06/23 07:38:49;;;;;;;7.95;4.65;;;20.40;99.90;;;;;;5111216;28;20043;-50
2022/06/23 07:41:20;;;;;;;9.50;4.97;;;20.60;99.90;;;;;;5092703;28;20047;-49
2022/06/23 07:44:20;;;;;;;10.48;4.90;;;20.70;99.90;;;;;;5110883;28;20059;-50
2022/06/23 07:46:46;;;;;;;7.05;4.85;;;20.70;99.90;;;;;;5080360;28;20051;-51
2022/06/23 07:49:12;;;;;;;9.55;5.22;;;20.80;99.90;;;;;;5092641;28;20046;-50
2022/06/23 07:51:38;;;;;;;9.80;5.03;;;20.90;99.90;;;;;;5111058;27;20050;-48
2022/06/23 07:54:06;;;;;;;7.18;5.00;;;21.00;99.90;;;;;;5111227;28;20478;-49
2022/06/23 07:56:36;;;;;;;8.30;4.97;;;21.00;99.90;;;;;;5091930;28;20043;-50
2022/06/23 07:59:07;;;;;;;9.60;4.32;;;21.10;99.90;;;;;;5110790;28;20066;-48
2022/06/23 08:01:49;;;;;;;9.65;5.05;;;21.20;99.90;;;;;;5130302;27;20081;-49
2022/06/23 08:04:51;;;;;;;8.77;3.95;;;21.30;99.90;;;;;;5131062;27;20120;-49
2022/06/23 08:07:18;;;;;;;10.32;4.75;;;21.40;99.90;;;;;;5047741;28;20076;-49
2022/06/23 08:09:51;;;;;;;6.90;4.88;;;21.50;99.90;;;;;;5114386;27;20386;-50
2022/06/23 08:18:14;;;;;;;8.63;4.60;;;21.70;99.90;;;;;;5131478;27;20100;-49
2022/06/23 08:20:52;;;;;;;10.05;4.38;;;21.90;99.90;;;;;;5130760;27;20046;-46
2022/06/23 08:23:20;;;;;;;8.68;4.55;;;21.90;99.90;;;;;;5131463;27;20390;-50
2022/06/23 08:25:46;;;;;;;8.60;4.85;;;22.00;99.90;;;;;;5131356;27;20039;-48
2022/06/23 08:28:12;;;;;;;12.10;5.47;;;22.10;99.90;;;;;;5111893;27;20039;-50
2022/06/23 08:30:39;;;;;;;8.98;4.53;;;22.20;99.90;;;;;;5103095;28;20554;-48
2022/06/23 08:33:06;;;;;;;7.93;4.82;;;22.20;99.90;;;;;;5110876;28;20072;-49
2022/06/23 08:35:48;;;;;;;9.45;4.88;;;22.30;99.90;;;;;;5109090;28;20103;-49
2022/06/23 08:38:26;;;;;;;12.75;4.78;;;22.40;99.90;;;;;;5110614;28;20131;-52
2022/06/23 08:41:10;;;;;;;8.02;4.82;;;22.50;99.90;;;;;;5110114;28;20048;-47
2022/06/23 08:43:59;;;;;;;10.00;4.43;;;22.60;99.90;;;;;;5092349;28;20122;-48
2022/06/23 08:46:37;;;;;;;9.77;5.15;;;22.80;99.90;;;;;;5110194;28;20493;-48
2022/06/23 08:49:33;;;;;;;7.63;4.20;;;22.90;99.90;;;;;;5110581;28;20031;-48
2022/06/23 08:52:07;;;;;;;8.93;4.45;;;22.90;99.90;;;;;;5110510;28;20148;-49
2022/06/23 08:54:55;;;;;;;8.73;5.03;;;23.10;99.90;;;;;;5110614;28;20046;-48
2022/06/23 08:57:43;;;;;;;10.52;4.75;;;23.30;99.90;;;;;;5109991;28;20072;-51
2022/06/23 09:00:31;;;;;;;8.82;4.28;;;23.30;99.90;;;;;;5091729;28;20051;-50
2022/06/23 09:03:11;;;;;;;7.05;4.20;;;23.50;99.90;;;;;;5110098;28;20092;-52
2022/06/23 09:05:55;;;;;;;6.72;4.30;;;23.70;99.90;;;;;;5110056;28;20063;-51
2022/06/23 09:08:27;;;;;;;9.40;4.35;;;23.80;99.90;;;;;;5108371;28;20130;-52
2022/06/23 09:11:09;;;;;;;6.95;4.00;;;24.00;99.90;;;;;;5104743;28;20046;-53
2022/06/23 09:13:56;;;;;;;6.97;3.45;;;24.20;99.90;;;;;;5105393;28;20036;-49
2022/06/23 09:16:49;;;;;;;11.23;4.63;;;24.40;99.90;;;;;;5109014;28;20055;-52
2022/06/23 09:19:55;;;;;;;7.53;4.35;;;24.70;99.90;;;;;;5107432;28;20038;-50
2022/06/23 09:22:35;;;;;;;7.05;3.72;;;24.70;99.90;;;;;;5065607;28;20056;-48
2022/06/23 09:25:33;;;;;;;9.43;3.92;;;24.90;99.90;;;;;;5103767;28;20039;-50
2022/06/23 09:28:15;;;;;;;8.65;4.15;;;25.20;99.90;;;;;;5099738;28;20046;-51
2022/06/23 09:31:13;;;;;;;6.18;3.78;;;25.40;99.90;;;;;;5102429;28;20086;-50
2022/06/23 09:33:45;;;;;;;12.60;3.80;;;25.40;99.90;;;;;;5044005;28;20063;-50
2022/06/23 09:36:29;;;;;;;8.30;3.88;;;25.60;99.90;;;;;;5102777;28;20043;-51
2022/06/23 09:39:19;;;;;;;6.00;3.85;;;25.80;99.90;;;;;;5101278;28;20040;-52
2022/06/23 09:41:56;;;;;;;10.55;3.95;;;25.70;99.00;;;;;;5089524;28;20126;-49
2022/06/23 09:44:31;;;;;;;9.88;3.72;;;26.00;99.80;;;;;;5087959;28;20051;-50
2022/06/23 09:47:11;;;;;;;7.80;3.72;;;26.10;99.60;;;;;;5111283;27;21558;-51
2022/06/23 09:49:43;;;;;;;7.57;3.90;;;26.00;99.00;;;;;;5110706;27;20036;-53
2022/06/23 09:52:26;;;;;;;7.78;3.58;;;26.20;98.00;;;;;;5109799;28;20039;-51
2022/06/23 09:55:20;;;;;;;11.63;3.90;;;26.20;98.30;;;;;;5113310;28;20050;-50
2022/06/23 09:57:54;;;;;;;7.88;3.90;;;26.20;98.50;;;;;;5113368;28;20058;-48
2022/06/23 10:00:51;;;;;;;6.80;3.22;;;26.40;97.90;;;;;;5113292;28;20086;-50
2022/06/23 10:03:22;;;;;;;6.60;3.47;;;26.50;98.60;;;;;;5113971;28;20043;-51
2022/06/23 10:06:03;;;;;;;8.70;3.20;;;26.60;98.50;;;;;;5095232;28;20035;-51
2022/06/23 10:08:56;;;;;;;10.52;3.10;;;26.70;97.50;;;;;;5113958;28;20031;-50
2022/06/23 10:11:51;;;;;;;6.55;2.70;;;26.70;97.30;;;;;;5078480;28;20039;-47
2022/06/23 10:14:32;;;;;;;7.65;3.10;;;26.70;97.00;;;;;;5113800;28;20463;-51
2022/06/23 10:17:10;;;;;;;7.63;3.05;;;26.80;96.70;;;;;;5113642;28;20050;-51
2022/06/23 10:20:02;;;;;;;7.63;3.17;;;26.80;96.60;;;;;;5113690;28;20042;-51
2022/06/23 10:23:03;;;;;;;8.95;3.00;;;27.10;97.10;;;;;;5113798;27;20403;-50
2022/06/23 10:25:55;;;;;;;7.15;2.80;;;27.10;96.30;;;;;;5029165;28;20040;-52
2022/06/23 10:28:39;;;;;;;5.47;3.15;;;27.20;97.20;;;;;;5109439;27;20043;-48
2022/06/23 10:31:29;;;;;;;6.28;3.25;;;27.20;96.00;;;;;;5112990;28;20050;-47
2022/06/23 10:34:16;;;;;;;7.00;3.00;;;27.00;95.70;;;;;;5112425;28;20070;-49
2022/06/23 10:36:58;;;;;;;7.60;3.15;;;27.20;95.70;;;;;;5111826;28;20043;-49
2022/06/23 10:39:54;;;;;;;9.05;2.88;;;27.30;95.90;;;;;;5112929;28;20067;-47
2022/06/23 10:42:41;;;;;;;6.47;2.80;;;27.40;95.40;;;;;;5131346;27;20042;-49
2022/06/23 10:45:22;;;;;;;5.25;3.08;;;27.40;96.10;;;;;;5112834;27;20048;-48
2022/06/23 10:48:06;;;;;;;7.80;2.97;;;27.60;94.90;;;;;;5110936;28;20509;-50
2022/06/23 10:51:09;;;;;;;5.68;2.40;;;27.80;95.00;;;;;;5112919;28;20559;-48
2022/06/23 10:53:50;;;;;;;5.80;2.63;;;27.90;95.90;;;;;;5111336;28;20118;-47
2022/06/23 10:56:35;;;;;;;7.55;2.72;;;27.90;94.40;;;;;;5110595;28;20114;-46
2022/06/23 10:59:33;;;;;;;6.32;2.53;;;28.20;94.70;;;;;;5109694;28;20051;-48
2022/06/23 11:02:16;;;;;;;7.45;2.40;;;28.20;94.20;;;;;;5074174;28;20136;-47
2022/06/23 11:05:19;;;;;;;5.95;2.70;;;28.20;94.90;;;;;;5112253;28;20156;-50
2022/06/23 11:08:20;;;;;;;6.88;2.50;;;28.20;95.90;;;;;;5095391;28;20047;-47
2022/06/23 11:11:10;;;;;;;4.28;2.33;;;28.40;94.70;;;;;;5066622;28;20046;-47
2022/06/23 11:13:52;;;;;;;7.70;2.78;;;28.70;94.20;;;;;;5108233;28;20035;-50
2022/06/23 11:16:40;;;;;;;7.97;2.60;;;28.60;93.10;;;;;;5107360;28;20035;-50
2022/06/23 11:19:17;;;;;;;6.25;2.75;;;28.70;94.00;;;;;;5111166;28;20104;-52
2022/06/23 11:21:57;;;;;;;5.63;2.20;;;28.90;93.50;;;;;;5100021;27;20175;-51
2022/06/23 11:25:00;;;;;;;5.43;2.15;;;29.10;93.40;;;;;;5107877;28;20039;-51
2022/06/23 11:27:29;;;;;;;5.63;2.75;;;29.10;92.00;;;;;;5103778;27;20123;-49
2022/06/23 11:30:30;;;;;;;11.25;2.58;;;29.10;93.00;;;;;;5104908;27;20127;-50
2022/06/23 11:33:20;;;;;;;7.10;2.22;;;29.40;92.80;;;;;;5104069;28;20036;-49
2022/06/23 11:36:03;;;;;;;5.90;2.15;;;29.60;92.50;;;;;;5101940;28;20566;-50
2022/06/23 11:38:44;;;;;;;4.97;2.17;;;29.70;92.40;;;;;;5107115;28;20380;-49
2022/06/23 11:41:23;;;;;;;5.63;2.13;;;29.70;91.60;;;;;;5087581;28;20036;-47
2022/06/23 11:44:10;;;;;;;5.93;2.10;;;29.60;91.00;;;;;;5106138;28;20055;-51
2022/06/23 11:46:48;;;;;;;5.93;2.08;;;29.80;90.50;;;;;;5104250;28;20071;-51
2022/06/23 11:49:33;;;;;;;5.30;2.20;;;29.80;90.80;;;;;;5101743;28;20044;-49
2022/06/23 11:52:29;;;;;;;7.10;2.30;;;30.10;90.30;;;;;;5105995;28;20036;-47
2022/06/23 11:55:01;;;;;;;7.72;1.88;;;30.20;87.80;;;;;;5103668;27;20036;-48
2022/06/23 11:57:42;;;;;;;4.05;1.92;;;30.50;90.00;;;;;;5105279;28;20028;-48
2022/06/23 12:00:11;;;;;;;7.03;2.08;;;30.60;89.30;;;;;;5104020;27;20083;-50
2022/06/23 12:02:58;;;;;;;6.53;2.17;;;30.70;86.20;;;;;;5094791;28;20499;-46
2022/06/23 12:05:38;;;;;;;4.22;2.10;;;30.90;87.40;;;;;;5103434;28;20039;-51
2022/06/23 12:08:27;;;;;;;4.63;2.10;;;30.80;86.10;;;;;;5098180;28;20422;-46
2022/06/23 12:10:53;;;;;;;4.53;1.95;;;31.10;87.60;;;;;;5095713;28;20077;-51
2022/06/23 12:13:19;;;;;;;4.10;2.22;;;31.10;85.60;;;;;;5106336;28;20063;-50
2022/06/23 12:15:49;;;;;;;4.55;2.20;;;31.10;82.60;;;;;;5097438;28;20055;-49
2022/06/23 12:18:52;;;;;;;6.63;2.30;;;30.90;80.90;;;;;;5104676;27;20554;-49
2022/06/23 12:21:43;;;;;;;5.10;2.20;;;31.00;82.20;;;;;;5105870;28;21323;-52
2022/06/23 12:24:44;;;;;;;5.55;2.22;;;31.20;82.00;;;;;;5109438;28;20053;-54
2022/06/23 12:27:28;;;;;;;6.57;2.22;;;31.20;79.90;;;;;;5097047;28;20539;-54
2022/06/23 12:30:06;;;;;;;6.10;2.30;;;31.50;84.40;;;;;;5109475;28;20042;-51
2022/06/23 12:33:00;;;;;;;6.85;2.42;;;31.50;83.40;;;;;;5109592;28;20043;-51
2022/06/23 12:35:54;;;;;;;5.50;2.97;;;31.60;81.50;;;;;;5109376;28;20160;-54
2022/06/23 12:38:34;;;;;;;7.32;2.30;;;31.70;81.50;;;;;;5105768;27;20082;-49
2022/06/23 12:41:15;;;;;;;6.50;2.85;;;31.70;80.00;;;;;;5105038;28;20036;-49
2022/06/23 12:43:42;;;;;;;5.72;2.33;;;31.80;80.10;;;;;;5101478;28;20064;-50
2022/06/23 12:46:13;;;;;;;5.90;2.60;;;31.80;79.90;;;;;;5105629;28;20043;-51
2022/06/23 12:48:53;;;;;;;4.97;2.85;;;31.70;80.10;;;;;;5106634;28;20043;-52
2022/06/23 12:51:42;;;;;;;5.18;2.25;;;32.00;80.10;;;;;;5108137;28;20031;-50
2022/06/23 12:54:13;;;;;;;4.75;2.35;;;32.10;79.20;;;;;;5108787;28;20051;-49
2022/06/23 12:56:41;;;;;;;9.75;2.40;;;32.20;80.50;;;;;;5109847;28;20040;-51
2022/06/23 12:59:30;;;;;;;4.13;2.30;;;32.20;80.60;;;;;;5109918;28;20047;-49
2022/06/23 13:02:08;;;;;;;6.28;2.42;;;32.30;78.00;;;;;;5108547;28;20067;-50
2022/06/23 13:05:00;;;;;;;5.72;2.47;;;32.60;78.60;;;;;;5109755;28;20028;-49
2022/06/23 13:07:34;;;;;;;6.80;2.40;;;32.50;76.40;;;;;;5110835;28;20027;-49
2022/06/23 13:10:13;;;;;;;5.43;2.53;;;32.50;79.00;;;;;;5109560;28;20039;-49
2022/06/23 13:12:45;;;;;;;6.10;2.33;;;32.80;77.70;;;;;;5109455;28;20506;-50
2022/06/23 13:15:34;;;;;;;4.45;2.60;;;33.10;78.10;;;;;;5109645;28;20039;-52
2022/06/23 13:18:03;;;;;;;24.83;5.20;;;32.90;77.60;;;;;;5113789;28;20035;-49
2022/06/23 13:21:14;;;;;;;15.00;3.28;;;32.80;78.20;;;;;;5110484;28;20071;-52
2022/06/23 13:23:48;;;;;;;9.20;2.92;;;32.90;79.10;;;;;;5050514;28;20048;-49
2022/06/23 13:26:26;;;;;;;9.85;2.55;;;32.80;76.00;;;;;;5119552;27;20043;-52
2022/06/23 13:29:00;;;;;;;6.63;2.35;;;33.10;76.90;;;;;;5114545;27;20036;-48
2022/06/23 13:31:53;;;;;;;7.53;2.80;;;33.20;75.70;;;;;;5109703;27;20047;-51
2022/06/23 13:34:27;;;;;;;7.25;3.00;;;33.30;76.30;;;;;;5097959;27;20092;-53
2022/06/23 13:37:08;;;;;;;8.25;2.75;;;33.30;76.30;;;;;;5109216;27;20040;-51
2022/06/23 13:40:04;;;;;;;6.10;2.53;;;33.30;76.90;;;;;;5109187;27;20992;-49
2022/06/23 13:42:42;;;;;;;6.38;2.60;;;33.50;77.80;;;;;;5105225;27;20050;-52
2022/06/23 13:45:36;;;;;;;6.95;2.60;;;33.60;75.10;;;;;;5112056;27;20539;-50
2022/06/23 13:48:11;;;;;;;5.78;2.88;;;33.80;76.60;;;;;;5114650;27;20032;-52
2022/06/23 13:50:45;;;;;;;7.20;3.08;;;34.20;77.20;;;;;;5110553;28;20114;-52
2022/06/23 13:53:27;;;;;;;6.03;2.50;;;34.20;74.20;;;;;;5110164;28;20039;-52
2022/06/23 13:56:10;;;;;;;5.55;2.55;;;34.30;75.80;;;;;;5110666;27;20065;-53
2022/06/23 13:58:39;;;;;;;8.80;2.70;;;34.30;74.40;;;;;;5110220;27;20110;-51